sensor_id;sensor_type;location;lat;lon;timestamp;temperature;humidity
7530;DHT22;3806;52.270;10.544;2023-03-14T00:00:51;13.00;99.90
7530;DHT22;3806;52.270;10.544;2023-03-14T00:03:17;13.00;99.90
7530;DHT22;3806;52.270;10.544;2023-03-14T00:05:43;13.00;99.90
7530;DHT22;3806;52.270;10.544;2023-03-14T00:08:11;13.00;99.90
7530;DHT22;3806;52.270;10.544;2023-03-14T00:10:37;13.00;99.90
7530;DHT22;3806;52.270;10.544;2023-03-14T00:13:02;13.00;99.90
7530;DHT22;3806;52.270;10.544;2023-03-14T00:15:28;13.00;99.90
7530;DHT22;3806;52.270;10.544;2023-03-14T00:17:53;12.90;99.90
7530;DHT22;3806;52.270;10.544;2023-03-14T00:20:19;12.90;99.90
7530;DHT22;3806;52.270;10.544;2023-03-14T00:22:44;12.90;99.90
7530;DHT22;3806;52.270;10.544;2023-03-14T00:25:12;12.90;99.90
7530;DHT22;3806;52.270;10.544;2023-03-14T00:27:38;12.90;99.90
7530;DHT22;3806;52.270;10.544;2023-03-14T00:30:04;12.90;99.90
7530;DHT22;3806;52.270;10.544;2023-03-14T00:32:30;12.90;99.90
7530;DHT22;3806;52.270;10.544;2023-03-14T00:34:56;12.90;99.90
7530;DHT22;3806;52.270;10.544;2023-03-14T00:37:22;12.90;99.90
7530;DHT22;3806;52.270;10.544;2023-03-14T00:39:47;12.90;99.90
7530;DHT22;3806;52.270;10.544;2023-03-14T00:42:13;12.90;99.90
7530;DHT22;3806;52.270;10.544;2023-03-14T00:44:39;13.00;99.90
7530;DHT22;3806;52.270;10.544;2023-03-14T00:47:04;13.00;99.90
7530;DHT22;3806;52.270;10.544;2023-03-14T00:49:30;13.00;99.90
7530;DHT22;3806;52.270;10.544;2023-03-14T00:51:55;13.00;99.90
7530;DHT22;3806;52.270;10.544;2023-03-14T00:54:21;13.00;99.90
7530;DHT22;3806;52.270;10.544;2023-03-14T00:56:47;13.00;99.90
7530;DHT22;3806;52.270;10.544;2023-03-14T00:59:12;13.00;99.90
7530;DHT22;3806;52.270;10.544;2023-03-14T01:01:39;13.00;99.90
7530;DHT22;3806;52.270;10.544;2023-03-14T01:04:05;13.10;99.90
7530;DHT22;3806;52.270;10.544;2023-03-14T01:06:31;13.00;99.90
7530;DHT22;3806;52.270;10.544;2023-03-14T01:08:57;13.10;99.90
7530;DHT22;3806;52.270;10.544;2023-03-14T01:11:34;13.10;99.90
7530;DHT22;3806;52.270;10.544;2023-03-14T01:14:00;13.10;99.90
7530;DHT22;3806;52.270;10.544;2023-03-14T01:16:28;13.10;99.90
7530;DHT22;3806;52.270;10.544;2023-03-14T01:18:53;13.10;99.90
7530;DHT22;3806;52.270;10.544;2023-03-14T01:21:25;13.10;99.90
7530;DHT22;3806;52.270;10.544;2023-03-14T01:23:51;13.10;99.90
7530;DHT22;3806;52.270;10.544;2023-03-14T01:26:20;13.00;99.90
7530;DHT22;3806;52.270;10.544;2023-03-14T01:28:47;13.00;99.90
7530;DHT22;3806;52.270;10.544;2023-03-14T01:31:14;13.00;99.90
7530;DHT22;3806;52.270;10.544;2023-03-14T01:33:40;13.00;99.90
7530;DHT22;3806;52.270;10.544;2023-03-14T01:36:06;13.00;99.90
7530;DHT22;3806;52.270;10.544;2023-03-14T01:38:33;13.00;99.90
7530;DHT22;3806;52.270;10.544;2023-03-14T01:41:02;12.90;99.90
7530;DHT22;3806;52.270;10.544;2023-03-14T01:43:29;12.90;99.90
7530;DHT22;3806;52.270;10.544;2023-03-14T01:48:35;12.90;99.90
7530;DHT22;3806;52.270;10.544;2023-03-14T01:51:02;12.90;99.90
7530;DHT22;3806;52.270;10.544;2023-03-14T01:53:28;12.90;99.90
7530;DHT22;3806;52.270;10.544;2023-03-14T01:55:55;12.90;99.90
7530;DHT22;3806;52.270;10.544;2023-03-14T01:58:26;12.80;99.90
7530;DHT22;3806;52.270;10.544;2023-03-14T02:00:53;12.80;99.90
7530;DHT22;3806;52.270;10.544;2023-03-14T02:03:20;12.80;99.90
7530;DHT22;3806;52.270;10.544;2023-03-14T02:05:48;12.70;99.90
7530;DHT22;3806;52.270;10.544;2023-03-14T02:08:17;12.70;99.90
7530;DHT22;3806;52.270;10.544;2023-03-14T02:10:45;12.70;99.90
7530;DHT22;3806;52.270;10.544;2023-03-14T02:13:12;12.70;99.90
7530;DHT22;3806;52.270;10.544;2023-03-14T02:15:39;12.70;99.90
7530;DHT22;3806;52.270;10.544;2023-03-14T02:18:05;12.60;99.90
7530;DHT22;3806;52.270;10.544;2023-03-14T02:23:49;12.60;99.90
7530;DHT22;3806;52.270;10.544;2023-03-14T02:26:22;12.60;99.90
7530;DHT22;3806;52.270;10.544;2023-03-14T02:28:50;12.60;99.90
7530;DHT22;3806;52.270;10.544;2023-03-14T02:31:18;12.60;99.90
7530;DHT22;3806;52.270;10.544;2023-03-14T02:33:46;12.60;99.90
7530;DHT22;3806;52.270;10.544;2023-03-14T02:36:13;12.60;99.90
7530;DHT22;3806;52.270;10.544;2023-03-14T02:41:29;12.60;99.90
7530;DHT22;3806;52.270;10.544;2023-03-14T02:43:55;12.50;99.90
7530;DHT22;3806;52.270;10.544;2023-03-14T02:46:21;12.50;99.90
7530;DHT22;3806;52.270;10.544;2023-03-14T02:48:53;12.50;99.90
7530;DHT22;3806;52.270;10.544;2023-03-14T02:51:21;12.50;99.90
7530;DHT22;3806;52.270;10.544;2023-03-14T02:53:47;12.60;99.90
7530;DHT22;3806;52.270;10.544;2023-03-14T02:56:13;12.50;99.90
7530;DHT22;3806;52.270;10.544;2023-03-14T02:58:38;12.50;99.90
7530;DHT22;3806;52.270;10.544;2023-03-14T03:01:07;12.40;99.90
7530;DHT22;3806;52.270;10.544;2023-03-14T03:03:32;12.40;99.90
7530;DHT22;3806;52.270;10.544;2023-03-14T03:05:58;12.40;99.90
7530;DHT22;3806;52.270;10.544;2023-03-14T03:08:26;12.50;99.90
7530;DHT22;3806;52.270;10.544;2023-03-14T03:10:52;12.40;99.90
7530;DHT22;3806;52.270;10.544;2023-03-14T03:13:18;12.40;99.90
7530;DHT22;3806;52.270;10.544;2023-03-14T03:15:44;12.40;99.90
7530;DHT22;3806;52.270;10.544;2023-03-14T03:18:10;12.40;99.90
7530;DHT22;3806;52.270;10.544;2023-03-14T03:20:36;12.40;99.90
7530;DHT22;3806;52.270;10.544;2023-03-14T03:23:02;12.30;99.90
7530;DHT22;3806;52.270;10.544;2023-03-14T03:25:27;12.20;99.90
7530;DHT22;3806;52.270;10.544;2023-03-14T03:27:53;12.30;99.90
7530;DHT22;3806;52.270;10.544;2023-03-14T03:30:19;12.30;99.90
7530;DHT22;3806;52.270;10.544;2023-03-14T03:32:44;12.30;99.90
7530;DHT22;3806;52.270;10.544;2023-03-14T03:35:10;12.30;99.90
7530;DHT22;3806;52.270;10.544;2023-03-14T03:37:36;12.30;99.90
7530;DHT22;3806;52.270;10.544;2023-03-14T03:40:02;12.20;99.90
7530;DHT22;3806;52.270;10.544;2023-03-14T03:42:31;12.20;99.90
7530;DHT22;3806;52.270;10.544;2023-03-14T03:44:57;12.20;99.90
7530;DHT22;3806;52.270;10.544;2023-03-14T03:47:23;12.20;99.90
7530;DHT22;3806;52.270;10.544;2023-03-14T03:49:48;12.20;99.90
7530;DHT22;3806;52.270;10.544;2023-03-14T03:52:14;12.20;99.90
7530;DHT22;3806;52.270;10.544;2023-03-14T03:54:39;12.10;99.90
7530;DHT22;3806;52.270;10.544;2023-03-14T03:57:05;12.10;99.90
7530;DHT22;3806;52.270;10.544;2023-03-14T03:59:30;12.00;99.90
7530;DHT22;3806;52.270;10.544;2023-03-14T04:01:56;12.00;99.90
7530;DHT22;3806;52.270;10.544;2023-03-14T04:04:21;12.00;99.90
7530;DHT22;3806;52.270;10.544;2023-03-14T04:06:47;12.00;99.90
7530;DHT22;3806;52.270;10.544;2023-03-14T04:09:12;12.00;99.90
7530;DHT22;3806;52.270;10.544;2023-03-14T04:11:38;12.00;99.90
7530;DHT22;3806;52.270;10.544;2023-03-14T04:14:04;12.00;99.90
7530;DHT22;3806;52.270;10.544;2023-03-14T04:16:30;12.00;99.90
7530;DHT22;3806;52.270;10.544;2023-03-14T04:18:59;12.00;99.90
7530;DHT22;3806;52.270;10.544;2023-03-14T04:21:24;12.00;99.90
7530;DHT22;3806;52.270;10.544;2023-03-14T04:23:50;12.00;99.90
7530;DHT22;3806;52.270;10.544;2023-03-14T04:26:15;12.00;99.90
7530;DHT22;3806;52.270;10.544;2023-03-14T04:28:42;12.00;99.90
7530;DHT22;3806;52.270;10.544;2023-03-14T04:31:18;12.00;99.90
7530;DHT22;3806;52.270;10.544;2023-03-14T04:33:44;12.00;99.90
7530;DHT22;3806;52.270;10.544;2023-03-14T04:36:10;12.00;99.90
7530;DHT22;3806;52.270;10.544;2023-03-14T04:38:36;12.00;99.90
7530;DHT22;3806;52.270;10.544;2023-03-14T04:41:02;11.90;99.90
7530;DHT22;3806;52.270;10.544;2023-03-14T04:43:28;11.90;99.90
7530;DHT22;3806;52.270;10.544;2023-03-14T04:45:54;11.90;99.90
7530;DHT22;3806;52.270;10.544;2023-03-14T04:48:19;11.90;99.90
7530;DHT22;3806;52.270;10.544;2023-03-14T04:50:46;11.90;99.90
7530;DHT22;3806;52.270;10.544;2023-03-14T04:53:13;12.00;99.90
7530;DHT22;3806;52.270;10.544;2023-03-14T04:55:38;12.00;99.90
7530;DHT22;3806;52.270;10.544;2023-03-14T04:58:04;12.00;99.90
7530;DHT22;3806;52.270;10.544;2023-03-14T05:00:29;12.00;99.90
7530;DHT22;3806;52.270;10.544;2023-03-14T05:02:55;12.00;99.90
7530;DHT22;3806;52.270;10.544;2023-03-14T05:05:20;12.00;99.90
7530;DHT22;3806;52.270;10.544;2023-03-14T05:07:46;12.00;99.90
7530;DHT22;3806;52.270;10.544;2023-03-14T05:10:12;11.90;99.90
7530;DHT22;3806;52.270;10.544;2023-03-14T05:12:38;11.90;99.90
7530;DHT22;3806;52.270;10.544;2023-03-14T05:15:04;11.90;99.90
7530;DHT22;3806;52.270;10.544;2023-03-14T05:17:30;11.80;99.90
7530;DHT22;3806;52.270;10.544;2023-03-14T05:19:57;11.80;99.90
7530;DHT22;3806;52.270;10.544;2023-03-14T05:22:23;11.80;99.90
7530;DHT22;3806;52.270;10.544;2023-03-14T05:24:48;11.80;99.90
7530;DHT22;3806;52.270;10.544;2023-03-14T05:27:14;11.70;99.90
7530;DHT22;3806;52.270;10.544;2023-03-14T05:29:39;11.70;99.90
7530;DHT22;3806;52.270;10.544;2023-03-14T05:32:05;11.70;99.90
7530;DHT22;3806;52.270;10.544;2023-03-14T05:34:30;11.70;99.90
7530;DHT22;3806;52.270;10.544;2023-03-14T05:36:56;11.60;99.90
7530;DHT22;3806;52.270;10.544;2023-03-14T05:39:22;11.60;99.90
7530;DHT22;3806;52.270;10.544;2023-03-14T05:41:47;11.60;99.90
7530;DHT22;3806;52.270;10.544;2023-03-14T05:44:13;11.50;99.90
7530;DHT22;3806;52.270;10.544;2023-03-14T05:46:39;11.50;99.90
7530;DHT22;3806;52.270;10.544;2023-03-14T05:49:05;11.60;99.90
7530;DHT22;3806;52.270;10.544;2023-03-14T05:51:30;11.50;99.90
7530;DHT22;3806;52.270;10.544;2023-03-14T05:53:56;11.50;99.90
7530;DHT22;3806;52.270;10.544;2023-03-14T05:56:21;11.50;99.90
7530;DHT22;3806;52.270;10.544;2023-03-14T05:58:47;11.40;99.90
7530;DHT22;3806;52.270;10.544;2023-03-14T06:01:12;11.40;99.90
7530;DHT22;3806;52.270;10.544;2023-03-14T06:03:38;11.40;99.90
7530;DHT22;3806;52.270;10.544;2023-03-14T06:06:03;11.40;99.90
7530;DHT22;3806;52.270;10.544;2023-03-14T06:08:29;11.40;99.90
7530;DHT22;3806;52.270;10.544;2023-03-14T06:10:56;11.40;99.90
7530;DHT22;3806;52.270;10.544;2023-03-14T06:13:22;11.40;99.90
7530;DHT22;3806;52.270;10.544;2023-03-14T06:15:48;11.30;99.90
7530;DHT22;3806;52.270;10.544;2023-03-14T06:18:13;11.50;99.90
7530;DHT22;3806;52.270;10.544;2023-03-14T06:20:39;11.40;99.90
7530;DHT22;3806;52.270;10.544;2023-03-14T06:23:08;11.50;99.90
7530;DHT22;3806;52.270;10.544;2023-03-14T06:25:35;11.60;99.90
7530;DHT22;3806;52.270;10.544;2023-03-14T06:28:00;11.80;99.90
7530;DHT22;3806;52.270;10.544;2023-03-14T06:30:26;11.90;99.90
7530;DHT22;3806;52.270;10.544;2023-03-14T06:32:52;12.00;99.90
7530;DHT22;3806;52.270;10.544;2023-03-14T06:35:18;12.60;99.90
7530;DHT22;3806;52.270;10.544;2023-03-14T06:37:44;13.50;99.90
7530;DHT22;3806;52.270;10.544;2023-03-14T06:40:11;14.60;99.50
7530;DHT22;3806;52.270;10.544;2023-03-14T06:42:39;15.80;96.60
7530;DHT22;3806;52.270;10.544;2023-03-14T06:45:05;16.90;91.40
7530;DHT22;3806;52.270;10.544;2023-03-14T06:47:31;17.90;88.10
7530;DHT22;3806;52.270;10.544;2023-03-14T06:49:56;19.10;81.50
7530;DHT22;3806;52.270;10.544;2023-03-14T06:52:22;19.80;70.40
7530;DHT22;3806;52.270;10.544;2023-03-14T06:54:47;20.80;68.20
7530;DHT22;3806;52.270;10.544;2023-03-14T06:57:13;22.00;62.00
7530;DHT22;3806;52.270;10.544;2023-03-14T06:59:38;22.60;53.60
7530;DHT22;3806;52.270;10.544;2023-03-14T07:02:04;21.90;52.00
7530;DHT22;3806;52.270;10.544;2023-03-14T07:04:29;21.00;54.00
7530;DHT22;3806;52.270;10.544;2023-03-14T07:06:55;19.90;55.60
7530;DHT22;3806;52.270;10.544;2023-03-14T07:09:20;18.50;58.80
7530;DHT22;3806;52.270;10.544;2023-03-14T07:11:46;17.50;63.50
7530;DHT22;3806;52.270;10.544;2023-03-14T07:14:11;16.90;68.00
7530;DHT22;3806;52.270;10.544;2023-03-14T07:16:37;16.90;72.80
7530;DHT22;3806;52.270;10.544;2023-03-14T07:19:03;18.00;72.00
7530;DHT22;3806;52.270;10.544;2023-03-14T07:21:29;19.10;66.80
7530;DHT22;3806;52.270;10.544;2023-03-14T07:23:54;19.90;62.50
7530;DHT22;3806;52.270;10.544;2023-03-14T07:26:20;20.90;58.50
7530;DHT22;3806;52.270;10.544;2023-03-14T07:28:45;21.60;55.20
7530;DHT22;3806;52.270;10.544;2023-03-14T07:31:11;22.00;53.50
7530;DHT22;3806;52.270;10.544;2023-03-14T07:33:36;22.20;52.10
7530;DHT22;3806;52.270;10.544;2023-03-14T07:36:02;22.30;51.00
7530;DHT22;3806;52.270;10.544;2023-03-14T07:38:28;22.30;50.80
7530;DHT22;3806;52.270;10.544;2023-03-14T07:41:02;21.70;50.60
7530;DHT22;3806;52.270;10.544;2023-03-14T07:43:27;21.00;51.80
7530;DHT22;3806;52.270;10.544;2023-03-14T07:45:53;20.20;53.20
7530;DHT22;3806;52.270;10.544;2023-03-14T07:48:19;19.50;54.90
7530;DHT22;3806;52.270;10.544;2023-03-14T07:50:48;18.60;57.40
7530;DHT22;3806;52.270;10.544;2023-03-14T07:53:14;17.90;59.90
7530;DHT22;3806;52.270;10.544;2023-03-14T07:55:40;17.30;63.00
7530;DHT22;3806;52.270;10.544;2023-03-14T07:58:05;17.00;66.40
7530;DHT22;3806;52.270;10.544;2023-03-14T08:00:31;17.20;71.00
7530;DHT22;3806;52.270;10.544;2023-03-14T08:02:57;18.60;68.90
7530;DHT22;3806;52.270;10.544;2023-03-14T08:05:22;19.90;63.40
7530;DHT22;3806;52.270;10.544;2023-03-14T08:07:48;21.00;58.60
7530;DHT22;3806;52.270;10.544;2023-03-14T08:10:13;22.40;55.40
7530;DHT22;3806;52.270;10.544;2023-03-14T08:12:46;23.30;51.40
7530;DHT22;3806;52.270;10.544;2023-03-14T08:15:11;24.10;49.80
7530;DHT22;3806;52.270;10.544;2023-03-14T08:17:37;25.70;46.80
7530;DHT22;3806;52.270;10.544;2023-03-14T08:20:03;26.70;43.30
7530;DHT22;3806;52.270;10.544;2023-03-14T08:22:32;27.50;41.10
7530;DHT22;3806;52.270;10.544;2023-03-14T08:24:57;27.40;39.10
7530;DHT22;3806;52.270;10.544;2023-03-14T08:27:22;26.60;39.10
7530;DHT22;3806;52.270;10.544;2023-03-14T08:29:48;26.60;39.40
7530;DHT22;3806;52.270;10.544;2023-03-14T08:32:13;27.40;37.90
7530;DHT22;3806;52.270;10.544;2023-03-14T08:34:39;26.70;37.20
7530;DHT22;3806;52.270;10.544;2023-03-14T08:37:05;27.00;37.90
7530;DHT22;3806;52.270;10.544;2023-03-14T08:39:31;26.90;36.80
7530;DHT22;3806;52.270;10.544;2023-03-14T08:41:56;25.60;37.90
7530;DHT22;3806;52.270;10.544;2023-03-14T08:44:22;24.00;39.80
7530;DHT22;3806;52.270;10.544;2023-03-14T08:46:47;22.30;42.70
7530;DHT22;3806;52.270;10.544;2023-03-14T08:49:13;20.80;44.40
7530;DHT22;3806;52.270;10.544;2023-03-14T08:51:40;19.70;46.90
7530;DHT22;3806;52.270;10.544;2023-03-14T08:54:05;19.00;49.60
7530;DHT22;3806;52.270;10.544;2023-03-14T08:56:31;18.60;51.70
7530;DHT22;3806;52.270;10.544;2023-03-14T08:58:56;18.80;52.70
7530;DHT22;3806;52.270;10.544;2023-03-14T09:01:22;18.90;52.50
7530;DHT22;3806;52.270;10.544;2023-03-14T09:03:50;18.60;53.50
7530;DHT22;3806;52.270;10.544;2023-03-14T09:06:16;18.20;55.00
7530;DHT22;3806;52.270;10.544;2023-03-14T09:08:43;17.70;56.90
7530;DHT22;3806;52.270;10.544;2023-03-14T09:11:08;17.10;60.20
7530;DHT22;3806;52.270;10.544;2023-03-14T09:13:34;16.60;63.40
7530;DHT22;3806;52.270;10.544;2023-03-14T09:16:00;16.20;68.70
7530;DHT22;3806;52.270;10.544;2023-03-14T09:18:26;15.90;73.10
7530;DHT22;3806;52.270;10.544;2023-03-14T09:20:51;15.80;76.20
7530;DHT22;3806;52.270;10.544;2023-03-14T09:23:17;15.80;77.80
7530;DHT22;3806;52.270;10.544;2023-03-14T09:25:42;15.90;79.30
7530;DHT22;3806;52.270;10.544;2023-03-14T09:28:08;16.00;80.20
7530;DHT22;3806;52.270;10.544;2023-03-14T09:30:34;16.00;81.00
7530;DHT22;3806;52.270;10.544;2023-03-14T09:32:59;15.90;81.70
7530;DHT22;3806;52.270;10.544;2023-03-14T09:35:25;15.80;83.50
7530;DHT22;3806;52.270;10.544;2023-03-14T09:37:51;15.70;84.60
7530;DHT22;3806;52.270;10.544;2023-03-14T09:40:20;15.60;85.60
7530;DHT22;3806;52.270;10.544;2023-03-14T09:42:53;15.60;87.30
7530;DHT22;3806;52.270;10.544;2023-03-14T09:45:28;16.20;89.30
7530;DHT22;3806;52.270;10.544;2023-03-14T09:47:55;17.00;83.40
7530;DHT22;3806;52.270;10.544;2023-03-14T09:50:22;17.80;80.10
7530;DHT22;3806;52.270;10.544;2023-03-14T09:52:51;19.20;74.20
7530;DHT22;3806;52.270;10.544;2023-03-14T09:55:20;20.50;66.00
7530;DHT22;3806;52.270;10.544;2023-03-14T09:57:48;20.20;60.90
7530;DHT22;3806;52.270;10.544;2023-03-14T10:00:20;19.60;62.00
7530;DHT22;3806;52.270;10.544;2023-03-14T10:02:53;18.90;64.30
7530;DHT22;3806;52.270;10.544;2023-03-14T10:05:22;18.20;66.90
7530;DHT22;3806;52.270;10.544;2023-03-14T10:07:47;17.80;69.80
7530;DHT22;3806;52.270;10.544;2023-03-14T10:10:25;17.50;71.10
7530;DHT22;3806;52.270;10.544;2023-03-14T10:12:58;17.40;72.80
7530;DHT22;3806;52.270;10.544;2023-03-14T10:15:30;17.50;72.60
7530;DHT22;3806;52.270;10.544;2023-03-14T10:18:00;17.70;72.70
7530;DHT22;3806;52.270;10.544;2023-03-14T10:20:33;17.90;71.30
7530;DHT22;3806;52.270;10.544;2023-03-14T10:23:05;17.80;70.80
7530;DHT22;3806;52.270;10.544;2023-03-14T10:25:34;17.60;71.60
7530;DHT22;3806;52.270;10.544;2023-03-14T10:28:00;17.50;72.40
7530;DHT22;3806;52.270;10.544;2023-03-14T10:33:39;17.00;73.80
7530;DHT22;3806;52.270;10.544;2023-03-14T10:36:23;16.90;75.70
7530;DHT22;3806;52.270;10.544;2023-03-14T10:38:51;17.00;76.70
7530;DHT22;3806;52.270;10.544;2023-03-14T10:41:26;17.20;75.50
7530;DHT22;3806;52.270;10.544;2023-03-14T10:43:54;17.30;75.60
7530;DHT22;3806;52.270;10.544;2023-03-14T10:46:23;17.30;75.60
7530;DHT22;3806;52.270;10.544;2023-03-14T10:48:49;17.40;76.70
7530;DHT22;3806;52.270;10.544;2023-03-14T10:53:55;18.90;73.40
7530;DHT22;3806;52.270;10.544;2023-03-14T10:56:23;21.30;66.40
7530;DHT22;3806;52.270;10.544;2023-03-14T10:58:51;24.40;55.40
7530;DHT22;3806;52.270;10.544;2023-03-14T11:04:22;27.90;42.70
7530;DHT22;3806;52.270;10.544;2023-03-14T11:07:13;28.80;38.90
7530;DHT22;3806;52.270;10.544;2023-03-14T11:13:11;26.50;38.10
7530;DHT22;3806;52.270;10.544;2023-03-14T11:29:54;18.40;58.80
7530;DHT22;3806;52.270;10.544;2023-03-14T11:35:04;17.80;63.40
7530;DHT22;3806;52.270;10.544;2023-03-14T11:37:36;17.40;66.30
7530;DHT22;3806;52.270;10.544;2023-03-14T11:42:38;16.80;71.30
7530;DHT22;3806;52.270;10.544;2023-03-14T11:45:04;16.60;73.50
7530;DHT22;3806;52.270;10.544;2023-03-14T11:47:39;16.50;75.30
7530;DHT22;3806;52.270;10.544;2023-03-14T11:50:24;16.30;77.70
7530;DHT22;3806;52.270;10.544;2023-03-14T11:53:13;16.30;79.60
7530;DHT22;3806;52.270;10.544;2023-03-14T11:55:42;16.40;81.00
7530;DHT22;3806;52.270;10.544;2023-03-14T11:58:26;16.50;80.90
7530;DHT22;3806;52.270;10.544;2023-03-14T12:00:54;16.40;81.20
7530;DHT22;3806;52.270;10.544;2023-03-14T12:03:44;16.30;82.50
7530;DHT22;3806;52.270;10.544;2023-03-14T12:06:19;16.10;83.60
7530;DHT22;3806;52.270;10.544;2023-03-14T12:08:50;16.00;85.60
7530;DHT22;3806;52.270;10.544;2023-03-14T12:11:38;15.80;87.80
7530;DHT22;3806;52.270;10.544;2023-03-14T12:14:27;15.60;90.30
7530;DHT22;3806;52.270;10.544;2023-03-14T12:17:21;15.40;92.80
7530;DHT22;3806;52.270;10.544;2023-03-14T12:19:48;15.30;96.40
7530;DHT22;3806;52.270;10.544;2023-03-14T12:22:28;15.00;99.10
7530;DHT22;3806;52.270;10.544;2023-03-14T12:25:18;14.70;99.90
7530;DHT22;3806;52.270;10.544;2023-03-14T12:27:48;14.20;99.90
7530;DHT22;3806;52.270;10.544;2023-03-14T12:30:40;13.70;99.90
7530;DHT22;3806;52.270;10.544;2023-03-14T12:35:41;12.50;99.90
7530;DHT22;3806;52.270;10.544;2023-03-14T12:38:16;12.20;99.90
7530;DHT22;3806;52.270;10.544;2023-03-14T12:41:23;11.90;99.90
7530;DHT22;3806;52.270;10.544;2023-03-14T12:43:50;11.70;99.90
7530;DHT22;3806;52.270;10.544;2023-03-14T12:46:23;11.50;99.90
7530;DHT22;3806;52.270;10.544;2023-03-14T12:51:41;11.30;99.90
7530;DHT22;3806;52.270;10.544;2023-03-14T12:59:58;10.70;99.90
7530;DHT22;3806;52.270;10.544;2023-03-14T13:02:27;10.50;99.90
7530;DHT22;3806;52.270;10.544;2023-03-14T13:05:11;10.30;99.90
7530;DHT22;3806;52.270;10.544;2023-03-14T13:18:33;9.30;99.90
7530;DHT22;3806;52.270;10.544;2023-03-14T13:21:19;9.10;99.90
7530;DHT22;3806;52.270;10.544;2023-03-14T13:24:04;9.10;99.90
7530;DHT22;3806;52.270;10.544;2023-03-14T13:26:35;9.10;99.90
7530;DHT22;3806;52.270;10.544;2023-03-14T13:29:20;9.00;99.90
7530;DHT22;3806;52.270;10.544;2023-03-14T13:31:48;8.90;99.90
7530;DHT22;3806;52.270;10.544;2023-03-14T13:34:14;8.70;99.90
7530;DHT22;3806;52.270;10.544;2023-03-14T13:36:40;8.60;99.90
7530;DHT22;3806;52.270;10.544;2023-03-14T13:39:13;8.50;99.90
7530;DHT22;3806;52.270;10.544;2023-03-14T13:41:41;8.40;99.90
7530;DHT22;3806;52.270;10.544;2023-03-14T13:46:48;8.50;99.90
7530;DHT22;3806;52.270;10.544;2023-03-14T13:49:23;8.40;99.90
7530;DHT22;3806;52.270;10.544;2023-03-14T13:51:50;8.30;99.90
7530;DHT22;3806;52.270;10.544;2023-03-14T13:54:18;8.10;99.90
7530;DHT22;3806;52.270;10.544;2023-03-14T13:56:44;8.00;99.90
7530;DHT22;3806;52.270;10.544;2023-03-14T13:59:31;7.90;99.90
7530;DHT22;3806;52.270;10.544;2023-03-14T14:01:57;7.80;99.90
7530;DHT22;3806;52.270;10.544;2023-03-14T14:04:26;7.80;99.90
7530;DHT22;3806;52.270;10.544;2023-03-14T14:06:58;7.80;99.90
7530;DHT22;3806;52.270;10.544;2023-03-14T14:09:27;7.80;99.90
7530;DHT22;3806;52.270;10.544;2023-03-14T14:17:29;7.80;99.90
7530;DHT22;3806;52.270;10.544;2023-03-14T14:19:56;7.70;99.90
7530;DHT22;3806;52.270;10.544;2023-03-14T14:22:22;7.60;99.90
7530;DHT22;3806;52.270;10.544;2023-03-14T14:24:48;7.60;99.90
7530;DHT22;3806;52.270;10.544;2023-03-14T14:27:18;7.60;99.90
7530;DHT22;3806;52.270;10.544;2023-03-14T14:29:44;7.50;99.90
7530;DHT22;3806;52.270;10.544;2023-03-14T14:32:21;7.50;99.90
7530;DHT22;3806;52.270;10.544;2023-03-14T14:37:26;7.50;99.90
7530;DHT22;3806;52.270;10.544;2023-03-14T14:39:56;7.60;99.90
7530;DHT22;3806;52.270;10.544;2023-03-14T14:42:31;7.60;99.90
7530;DHT22;3806;52.270;10.544;2023-03-14T14:44:59;7.60;99.90
7530;DHT22;3806;52.270;10.544;2023-03-14T14:47:29;7.60;99.90
7530;DHT22;3806;52.270;10.544;2023-03-14T14:49:59;7.60;99.90
7530;DHT22;3806;52.270;10.544;2023-03-14T14:52:44;7.60;99.90
7530;DHT22;3806;52.270;10.544;2023-03-14T14:55:20;7.60;99.90
7530;DHT22;3806;52.270;10.544;2023-03-14T14:57:51;7.60;99.90
7530;DHT22;3806;52.270;10.544;2023-03-14T15:00:22;7.60;99.90
7530;DHT22;3806;52.270;10.544;2023-03-14T15:02:50;7.50;99.90
7530;DHT22;3806;52.270;10.544;2023-03-14T15:05:23;7.40;99.90
7530;DHT22;3806;52.270;10.544;2023-03-14T15:07:49;7.30;99.90
7530;DHT22;3806;52.270;10.544;2023-03-14T15:10:17;7.40;99.90
7530;DHT22;3806;52.270;10.544;2023-03-14T15:12:43;7.50;99.90
7530;DHT22;3806;52.270;10.544;2023-03-14T15:15:10;7.60;99.90
7530;DHT22;3806;52.270;10.544;2023-03-14T15:17:37;7.60;99.90
7530;DHT22;3806;52.270;10.544;2023-03-14T15:20:04;7.60;99.90
7530;DHT22;3806;52.270;10.544;2023-03-14T15:22:29;7.60;99.90
7530;DHT22;3806;52.270;10.544;2023-03-14T15:24:55;7.60;99.90
7530;DHT22;3806;52.270;10.544;2023-03-14T15:27:21;7.60;99.90
7530;DHT22;3806;52.270;10.544;2023-03-14T15:29:46;7.60;99.90
7530;DHT22;3806;52.270;10.544;2023-03-14T15:32:13;7.60;99.90
7530;DHT22;3806;52.270;10.544;2023-03-14T15:34:40;7.70;99.90
7530;DHT22;3806;52.270;10.544;2023-03-14T15:37:12;7.70;99.90
7530;DHT22;3806;52.270;10.544;2023-03-14T15:39:39;7.70;99.30
7530;DHT22;3806;52.270;10.544;2023-03-14T15:42:05;7.80;99.30
7530;DHT22;3806;52.270;10.544;2023-03-14T15:44:30;7.80;99.30
7530;DHT22;3806;52.270;10.544;2023-03-14T15:46:56;7.70;98.80
7530;DHT22;3806;52.270;10.544;2023-03-14T15:49:21;7.70;98.60
7530;DHT22;3806;52.270;10.544;2023-03-14T15:51:47;7.70;98.30
7530;DHT22;3806;52.270;10.544;2023-03-14T15:54:12;7.70;98.20
7530;DHT22;3806;52.270;10.544;2023-03-14T15:56:38;7.70;97.70
7530;DHT22;3806;52.270;10.544;2023-03-14T15:59:04;7.70;97.60
7530;DHT22;3806;52.270;10.544;2023-03-14T16:01:29;7.70;97.20
7530;DHT22;3806;52.270;10.544;2023-03-14T16:03:54;7.60;95.60
7530;DHT22;3806;52.270;10.544;2023-03-14T16:06:20;7.70;94.50
7530;DHT22;3806;52.270;10.544;2023-03-14T16:08:46;7.60;92.80
7530;DHT22;3806;52.270;10.544;2023-03-14T16:11:13;7.60;92.00
7530;DHT22;3806;52.270;10.544;2023-03-14T16:13:40;7.60;91.50
7530;DHT22;3806;52.270;10.544;2023-03-14T16:16:07;7.60;91.40
7530;DHT22;3806;52.270;10.544;2023-03-14T16:18:34;7.60;90.60
7530;DHT22;3806;52.270;10.544;2023-03-14T16:21:04;7.60;90.10
7530;DHT22;3806;52.270;10.544;2023-03-14T16:23:32;7.70;90.40
7530;DHT22;3806;52.270;10.544;2023-03-14T16:25:58;7.70;88.70
7530;DHT22;3806;52.270;10.544;2023-03-14T16:28:24;7.70;88.10
7530;DHT22;3806;52.270;10.544;2023-03-14T16:30:50;7.70;87.40
7530;DHT22;3806;52.270;10.544;2023-03-14T16:33:16;7.80;87.00
7530;DHT22;3806;52.270;10.544;2023-03-14T16:35:53;7.80;86.60
7530;DHT22;3806;52.270;10.544;2023-03-14T16:38:18;7.70;85.00
7530;DHT22;3806;52.270;10.544;2023-03-14T16:40:44;7.70;84.40
7530;DHT22;3806;52.270;10.544;2023-03-14T16:43:09;7.70;84.40
7530;DHT22;3806;52.270;10.544;2023-03-14T16:45:36;7.60;84.50
7530;DHT22;3806;52.270;10.544;2023-03-14T16:48:01;7.60;84.50
7530;DHT22;3806;52.270;10.544;2023-03-14T16:50:27;7.50;84.50
7530;DHT22;3806;52.270;10.544;2023-03-14T16:52:52;7.40;85.70
7530;DHT22;3806;52.270;10.544;2023-03-14T16:55:19;7.40;86.10
7530;DHT22;3806;52.270;10.544;2023-03-14T16:57:45;7.30;86.10
7530;DHT22;3806;52.270;10.544;2023-03-14T17:00:11;7.30;85.70
7530;DHT22;3806;52.270;10.544;2023-03-14T17:02:37;7.30;84.80
7530;DHT22;3806;52.270;10.544;2023-03-14T17:05:03;7.20;84.80
7530;DHT22;3806;52.270;10.544;2023-03-14T17:07:28;7.20;85.50